Time;durP1;ratioP1;P1;durP2;ratioP2;P2;SDS_P1;SDS_P2;PMS_P1;PMS_P2;Temp;Humidity;BMP_temperature;BMP_pressure;BME280_temperature;BME280_humidity;BME280_pressure;Samples;Min_cycle;Max_cycle;Signal;HPM_P1;HPM_P2
2022/07/17 00:08:27;;;;;;;6.93;2.13;;;;;;;15.29;74.06;102482.75;20830804;28;19921;-61
2022/07/17 00:18:49;;;;;;;;;;;;;;;15.14;76.78;102483.59;20837691;28;20047;-61
2022/07/17 00:29:10;;;;;;;5.87;1.97;;;;;;;15.07;74.23;102483.09;20842725;28;19928;-61
2022/07/17 00:39:32;;;;;;;7.43;1.98;;;;;;;14.98;74.44;102491.50;20842716;28;20129;-61
2022/07/17 00:49:54;;;;;;;9.23;1.83;;;;;;;14.81;74.94;102488.97;20842380;28;20125;-61
2022/07/17 01:00:16;;;;;;;;;;;;;;;14.80;79.30;102495.16;20844795;28;20095;-61
2022/07/17 01:10:40;;;;;;;8.48;2.25;;;;;;;14.79;75.50;102488.19;20859927;28;19920;-61
2022/07/17 01:21:04;;;;;;;10.18;2.08;;;;;;;14.80;75.24;102487.28;20850445;28;20040;-61
2022/07/17 01:31:26;;;;;;;7.60;2.17;;;;;;;14.75;75.52;102481.41;20847595;28;20060;-61
2022/07/17 01:41:48;;;;;;;5.70;1.70;;;;;;;14.73;75.61;102485.06;20872555;28;20041;-61
2022/07/17 01:52:09;;;;;;;;;;;;;;;14.57;79.86;102477.19;20838012;28;20047;-61
2022/07/17 02:02:31;;;;;;;7.10;2.10;;;;;;;14.57;77.22;102481.59;20845342;28;19920;-61
2022/07/17 02:12:53;;;;;;;6.18;1.80;;;;;;;14.57;77.11;102487.66;20845219;28;20108;-61
2022/07/17 02:23:14;;;;;;;;;;;;;;;14.42;81.66;102489.44;20831330;28;20041;-61
2022/07/17 02:33:36;;;;;;;9.90;2.50;;;;;;;14.22;78.36;102494.91;20863770;28;19957;-61
2022/07/17 02:43:57;;;;;;;7.80;2.25;;;;;;;14.08;78.64;102510.50;20842091;28;20049;-61
2022/07/17 02:54:19;;;;;;;10.57;2.30;;;;;;;13.89;79.88;102528.09;20847995;28;20506;-61
2022/07/17 03:04:41;;;;;;;9.57;2.50;;;;;;;13.77;80.74;102518.25;20845031;28;20045;-61
2022/07/17 03:15:03;;;;;;;;;;;;;;;13.89;84.86;102501.88;20849351;28;20505;-61
2022/07/17 03:25:24;;;;;;;;;;;;;;;13.88;79.34;102463.47;20845859;28;19928;-61
2022/07/17 03:35:46;;;;;;;;;;;;;;;13.66;85.85;102523.19;20838800;28;20350;-61
2022/07/17 03:46:07;;;;;;;;;;;;;;;13.57;81.57;102521.00;20835195;28;19927;-61
2022/07/17 03:56:29;;;;;;;;;;;;;;;13.58;81.11;102531.44;20857548;28;19921;-61
2022/07/17 04:06:51;;;;;;;;;;;;;;;13.45;82.32;102531.25;20863277;28;19929;-61
2022/07/17 04:17:12;;;;;;;;;;;;;;;13.43;83.01;102520.84;20865764;28;20023;-61
2022/07/17 04:27:33;;;;;;;;;;;;;;;13.35;82.77;102523.00;20837868;28;19925;-61
2022/07/17 04:37:55;;;;;;;;;;;;;;;13.31;83.69;102545.03;20856660;28;19929;-61
2022/07/17 04:48:17;;;;;;;;;;;;;;;13.37;83.89;102543.88;20847554;28;19924;-62
2022/07/17 04:58:38;;;;;;;;;;;;;;;13.35;82.96;102541.34;20850076;28;19921;-62
2022/07/17 05:09:00;;;;;;;;;;;;;;;13.37;82.92;102523.78;20844189;28;19928;-60
2022/07/17 05:19:22;;;;;;;;;;;;;;;13.53;83.35;102535.22;20858012;28;20286;-61
2022/07/17 05:29:44;;;;;;;;;;;;;;;13.66;81.86;102510.09;20854932;28;19921;-61
2022/07/17 05:40:06;;;;;;;;;;;;;;;13.71;82.39;102506.28;20857592;28;19921;-61
2022/07/17 05:50:27;;;;;;;;;;;;;;;14.00;82.10;102510.03;20851165;28;19921;-61
2022/07/17 06:00:49;;;;;;;;;;;;;;;14.37;79.88;102520.34;20844172;28;19921;-61
2022/07/17 06:11:10;;;;;;;;;;;;;;;14.57;79.59;102529.66;20854161;28;19925;-61
2022/07/17 06:21:31;;;;;;;;;;;;;;;14.90;78.14;102527.84;20842830;28;20484;-61
2022/07/17 06:31:53;;;;;;;;;;;;;;;15.49;76.44;102565.63;20848815;28;19928;-59
2022/07/17 06:42:14;;;;;;;;;;;;;;;16.12;73.96;102579.44;20842176;28;19921;-60
2022/07/17 06:52:36;;;;;;;4.25;1.30;;;;;;;16.77;71.87;102577.97;20838676;28;19925;-61
2022/07/17 07:03:03;;;;;;;8.10;1.42;;;;;;;17.09;70.49;102592.59;20837093;28;20046;-61
2022/07/17 07:13:24;;;;;;;;;;;;;;;17.22;73.05;102590.88;20842253;28;20053;-61
2022/07/17 07:23:46;;;;;;;7.80;1.17;;;;;;;17.47;70.48;102614.75;20822272;28;19998;-61
2022/07/17 07:34:07;;;;;;;6.22;1.38;;;;;;;17.46;71.23;102607.81;20837700;28;20041;-60
2022/07/17 07:44:29;;;;;;;2.90;0.90;;;;;;;17.67;70.36;102624.84;20834875;28;20041;-61
2022/07/17 07:54:52;;;;;;;6.93;1.20;;;;;;;17.78;70.03;102606.53;20834306;28;20050;-61
2022/07/17 08:05:14;;;;;;;6.28;1.08;;;;;;;17.85;70.08;102618.38;20836493;28;20049;-61
2022/07/17 08:15:36;;;;;;;4.45;0.85;;;;;;;18.00;69.93;102618.19;20820687;28;20073;-62
2022/07/17 08:25:58;;;;;;;6.57;1.08;;;;;;;18.08;70.59;102612.41;20823975;28;20045;-63
2022/07/17 08:36:19;;;;;;;6.20;0.80;;;;;;;18.39;68.83;102618.19;20823858;28;20383;-63
2022/07/17 08:46:41;;;;;;;4.82;1.13;;;;;;;18.64;68.05;102632.22;20816555;28;20047;-63
2022/07/17 08:57:03;;;;;;;;;;;;;;;18.95;68.31;102634.41;20826952;28;20659;-61
2022/07/17 09:07:25;;;;;;;7.38;0.82;;;;;;;19.28;66.35;102645.28;20842860;28;20012;-62
2022/07/17 09:17:51;;;;;;;6.28;0.98;;;;;;;19.34;66.21;102625.47;20822306;28;20048;-63
2022/07/17 09:28:14;;;;;;;2.17;0.80;;;;;;;19.51;65.58;102615.34;20830172;28;20045;-63
2022/07/17 09:38:37;;;;;;;3.83;1.10;;;;;;;19.79;65.39;102620.31;20829390;28;20057;-65
2022/07/17 09:49:09;;;;;;;3.65;1.02;;;;;;;20.14;64.34;102618.53;20828369;28;20905;-62
2022/07/17 09:59:35;;;;;;;4.90;1.00;;;;;;;20.21;64.81;102622.41;20862734;28;20058;-63
2022/07/17 10:09:58;;;;;;;2.72;0.90;;;;;;;20.15;64.01;102612.25;20831324;28;20510;-62
2022/07/17 10:20:25;;;;;;;6.55;1.00;;;;;;;20.62;62.35;102616.44;20829299;28;20046;-62
2022/07/17 10:30:47;;;;;;;3.60;1.08;;;;;;;20.90;63.55;102629.25;20809193;28;20046;-62
2022/07/17 10:41:08;;;;;;;3.00;0.80;;;;;;;21.43;62.18;102608.06;20815319;28;20607;-62
2022/07/17 10:51:32;;;;;;;5.32;0.90;;;;;;;21.99;61.20;102598.06;20822760;28;20037;-61
2022/07/17 11:01:57;;;;;;;3.58;0.98;;;;;;;22.32;56.76;102603.19;20825702;28;20044;-62
2022/07/17 11:12:30;;;;;;;3.53;0.80;;;;;;;22.67;54.68;102608.06;20826687;28;20057;-63
2022/07/17 11:22:57;;;;;;;2.45;0.70;;;;;;;23.07;57.33;102603.59;20824354;28;20049;-62
2022/07/17 11:33:22;;;;;;;5.77;0.87;;;;;;;23.45;55.45;102604.53;20828574;28;20525;-63
2022/07/17 11:43:44;;;;;;;2.70;0.98;;;;;;;23.69;55.24;102591.63;20833531;28;20053;-62
2022/07/17 11:54:15;;;;;;;1.85;0.70;;;;;;;23.73;51.01;102592.19;20829429;28;20076;-62
2022/07/17 12:04:49;;;;;;;1.08;0.60;;;;;;;23.93;52.04;102578.78;20819622;28;20050;-62
2022/07/17 12:15:12;;;;;;;2.42;0.70;;;;;;;23.88;55.28;102577.50;20830223;28;20144;-62
2022/07/17 12:25:34;;;;;;;4.32;0.95;;;;;;;23.78;56.41;102566.00;20828113;28;20741;-62
2022/07/17 12:35:56;;;;;;;2.47;0.68;;;;;;;23.32;54.89;102573.81;20839484;28;20046;-62
2022/07/17 12:46:18;;;;;;;2.03;0.88;;;;;;;23.09;58.99;102559.06;20840186;28;20045;-62
2022/07/17 12:56:40;;;;;;;2.45;1.02;;;;;;;23.06;54.60;102548.69;20838405;28;20114;-61
2022/07/17 13:07:02;;;;;;;2.40;1.10;;;;;;;22.99;56.37;102547.53;20836209;28;20507;-62
2022/07/17 13:17:23;;;;;;;3.08;1.10;;;;;;;22.97;56.27;102536.19;20838077;28;20041;-62
2022/07/17 13:27:45;;;;;;;7.82;1.10;;;;;;;23.15;56.48;102529.22;20829234;28;20455;-61
2022/07/17 13:38:08;;;;;;;4.40;1.25;;;;;;;23.34;53.49;102531.09;20823149;28;20045;-61
2022/07/17 13:48:30;;;;;;;3.00;1.30;;;;;;;23.47;57.06;102524.50;20822042;28;20052;-61
2022/07/17 13:58:52;;;;;;;6.40;1.30;;;;;;;23.52;57.48;102530.25;20831599;28;20045;-61
2022/07/17 14:09:14;;;;;;;3.30;1.25;;;;;;;23.67;57.81;102520.84;20830478;28;20713;-62
2022/07/17 14:19:36;;;;;;;5.68;1.40;;;;;;;23.86;55.71;102523.53;20813847;28;20054;-61
2022/07/17 14:30:03;;;;;;;4.97;1.33;;;;;;;23.95;54.81;102518.16;20829055;28;20045;-63
2022/07/17 14:40:25;;;;;;;2.67;1.42;;;;;;;24.10;54.82;102516.72;20830840;28;20278;-61
2022/07/17 14:50:47;;;;;;;4.18;2.00;;;;;;;24.10;55.24;102498.06;20817384;28;20041;-63
2022/07/17 15:01:08;;;;;;;4.38;1.90;;;;;;;24.16;55.37;102494.00;20815868;28;20053;-62
2022/07/17 15:11:30;;;;;;;6.10;1.98;;;;;;;24.06;55.98;102482.50;20806837;28;20059;-62
2022/07/17 15:21:52;;;;;;;5.20;2.00;;;;;;;23.99;58.46;102468.09;20842709;28;20124;-63
2022/07/17 15:32:14;;;;;;;5.80;2.05;;;;;;;24.31;56.52;102468.50;20816499;28;20045;-62
2022/07/17 15:42:36;;;;;;;5.40;2.35;;;;;;;24.36;55.60;102470.59;20808191;28;20051;-62
2022/07/17 15:52:57;;;;;;;5.72;2.92;;;;;;;24.39;57.16;102458.78;20825508;28;20059;-62
2022/07/17 16:03:19;;;;;;;5.53;3.00;;;;;;;24.34;54.89;102440.56;20853043;28;20128;-62
2022/07/17 16:13:41;;;;;;;7.20;2.50;;;;;;;24.44;57.47;102422.72;20829238;28;20091;-65
2022/07/17 16:24:03;;;;;;;6.50;2.90;;;;;;;24.68;56.87;102422.16;20828169;28;20041;-64
2022/07/17 16:34:25;;;;;;;6.30;2.97;;;;;;;24.85;56.26;102413.31;20830330;28;20056;-63
2022/07/17 16:44:47;;;;;;;7.28;3.17;;;;;;;25.01;55.75;102398.31;20831520;28;20045;-63
2022/07/17 16:55:09;;;;;;;6.45;3.17;;;;;;;25.38;57.28;102385.63;20823440;28;20044;-60
2022/07/17 17:05:31;;;;;;;8.40;3.30;;;;;;;25.21;54.70;102377.66;20825036;28;20053;-62
2022/07/17 17:15:52;;;;;;;5.30;3.38;;;;;;;25.27;54.88;102367.19;20825465;28;20529;-63
2022/07/17 17:26:14;;;;;;;5.18;3.85;;;;;;;25.23;55.84;102355.13;20828270;28;20454;-63
2022/07/17 17:36:36;;;;;;;9.60;3.72;;;;;;;24.85;56.60;102354.59;20821030;28;20499;-63
2022/07/17 17:46:58;;;;;;;6.97;4.10;;;;;;;24.62;59.23;102359.56;20825586;28;20508;-63
2022/07/17 17:57:19;;;;;;;7.63;4.93;;;;;;;24.63;58.47;102355.91;20830342;28;20050;-63
2022/07/17 18:07:41;;;;;;;10.20;3.72;;;;;;;24.77;57.61;102359.88;20822155;28;20065;-63
2022/07/17 18:18:03;;;;;;;7.70;4.07;;;;;;;24.68;56.92;102352.78;20830133;28;20053;-62
2022/07/17 18:28:25;;;;;;;6.30;3.55;;;;;;;24.51;54.60;102350.97;20825132;28;20498;-61
2022/07/17 18:38:47;;;;;;;5.20;3.58;;;;;;;24.34;56.88;102365.91;20827229;28;20056;-61
2022/07/17 18:49:08;;;;;;;6.13;3.75;;;;;;;24.22;59.05;102366.28;20826800;28;20052;-59
2022/07/17 18:59:30;;;;;;;8.52;3.85;;;;;;;23.99;59.22;102358.84;20812423;28;20045;-62
2022/07/17 19:10:01;;;;;;;6.03;3.80;;;;;;;23.72;60.30;102334.81;20834342;28;20100;-61
2022/07/17 19:20:23;;;;;;;5.35;3.15;;;;;;;23.55;60.77;102351.53;20823730;28;20047;-61
2022/07/17 19:30:46;;;;;;;4.95;3.40;;;;;;;23.30;61.11;102341.50;20824763;28;20042;-62
2022/07/17 19:41:07;;;;;;;6.55;3.40;;;;;;;23.15;61.46;102358.91;20830861;28;20049;-58
2022/07/17 19:51:29;;;;;;;6.35;3.80;;;;;;;22.93;61.76;102356.53;20828932;28;20050;-58
2022/07/17 20:01:51;;;;;;;6.88;3.40;;;;;;;22.84;61.79;102388.44;20831600;28;20052;-61
2022/07/17 20:12:12;;;;;;;6.72;3.50;;;;;;;22.60;62.89;102364.91;20830431;28;20044;-62
2022/07/17 20:22:35;;;;;;;9.45;3.45;;;;;;;22.47;63.38;102374.97;20836240;28;20130;-61
2022/07/17 20:32:56;;;;;;;7.25;3.38;;;;;;;22.31;63.73;102379.13;20825036;28;20045;-61
2022/07/17 20:43:19;;;;;;;4.75;3.17;;;;;;;22.21;64.14;102382.72;20870147;28;20123;-60
2022/07/17 20:53:41;;;;;;;5.13;3.25;;;;;;;21.99;65.22;102361.66;20847641;28;20501;-61
2022/07/17 21:04:04;;;;;;;7.78;2.97;;;;;;;21.85;65.33;102364.69;20854825;28;20040;-61
2022/07/17 21:14:25;;;;;;;4.50;3.15;;;;;;;21.73;65.33;102360.44;20856320;28;20055;-61
2022/07/17 21:24:47;;;;;;;7.38;3.80;;;;;;;21.66;65.95;102391.16;20859146;28;20044;-61
2022/07/17 21:35:09;;;;;;;7.57;3.95;;;;;;;21.60;66.32;102394.31;20854927;28;20049;-62
2022/07/17 21:45:30;;;;;;;7.22;3.75;;;;;;;21.54;66.96;102392.19;20848015;28;20041;-61
2022/07/17 21:55:53;;;;;;;7.05;3.58;;;;;;;21.49;67.10;102378.44;20851475;28;20045;-61
2022/07/17 22:06:15;;;;;;;7.05;3.70;;;;;;;21.52;66.94;102372.88;20852199;28;20048;-59
2022/07/17 22:16:36;;;;;;;5.68;3.40;;;;;;;21.50;67.25;102386.28;20846615;28;20059;-62
2022/07/17 22:26:58;;;;;;;6.20;3.13;;;;;;;21.45;67.34;102392.94;20847650;28;20533;-62
2022/07/17 22:37:20;;;;;;;5.30;2.92;;;;;;;21.32;67.05;102381.69;20849296;28;20563;-61
2022/07/17 22:47:42;;;;;;;5.18;3.20;;;;;;;21.10;67.64;102380.97;20832289;28;20045;-61
2022/07/17 22:58:03;;;;;;;7.32;3.63;;;;;;;20.95;68.25;102367.19;20842651;28;20494;-61
2022/07/17 23:08:25;;;;;;;4.95;3.28;;;;;;;20.84;68.65;102363.75;20842998;28;20048;-62
2022/07/17 23:18:46;;;;;;;5.72;3.60;;;;;;;20.66;69.09;102360.78;20832899;28;20056;-62
2022/07/17 23:29:08;;;;;;;6.68;3.50;;;;;;;20.53;69.06;102349.47;20838760;28;20410;-59
2022/07/17 23:39:30;;;;;;;6.22;3.63;;;;;;;20.55;68.30;102342.25;20833291;28;20061;-61
2022/07/17 23:49:51;;;;;;;8.82;3.72;;;;;;;20.37;68.45;102321.72;20838404;28;20041;-61
